createdAt,value
2022-11-13T00:01:22.527Z,36.50
2022-11-13T00:11:29.303Z,37.20
2022-11-13T00:16:33.208Z,31.70
2022-11-13T00:21:36.930Z,40.20
2022-11-13T00:26:40.472Z,38.10
2022-11-13T00:31:44.938Z,39.50
2022-11-13T00:36:48.623Z,39.80
2022-11-13T00:41:52.060Z,37.40
2022-11-13T00:46:55.753Z,38.40
2022-11-13T00:52:00.891Z,32.80
2022-11-13T00:57:05.681Z,41.00
2022-11-13T01:02:10.604Z,44.50
2022-11-13T01:07:14.309Z,52.30
2022-11-13T01:12:17.780Z,38.80
2022-11-13T01:17:20.919Z,47.50
2022-11-13T01:22:24.428Z,37.90
2022-11-13T01:27:27.682Z,41.70
2022-11-13T01:32:31.242Z,47.40
2022-11-13T01:37:35.046Z,43.80
2022-11-13T01:42:38.744Z,41.20
2022-11-13T01:47:42.453Z,47.10
2022-11-13T01:52:46.532Z,44.10
2022-11-13T01:57:50.868Z,41.20
2022-11-13T02:02:54.818Z,35.50
2022-11-13T02:07:59.071Z,41.20
2022-11-13T02:13:03.050Z,43.60
2022-11-13T02:18:07.590Z,33.50
2022-11-13T02:23:11.257Z,42.60
2022-11-13T02:28:15.590Z,43.10
2022-11-13T02:33:32.528Z,38.80
2022-11-13T02:38:40.752Z,35.70
2022-11-13T02:43:44.977Z,37.10
2022-11-13T02:48:48.608Z,41.40
2022-11-13T02:53:52.501Z,36.60
2022-11-13T02:58:56.292Z,32.90
2022-11-13T03:04:00.429Z,39.80
2022-11-13T03:09:03.952Z,32.20
2022-11-13T03:14:07.586Z,34.40
2022-11-13T03:19:11.155Z,33.70
2022-11-13T03:24:15.037Z,37.60
2022-11-13T03:29:18.622Z,32.30
2022-11-13T03:34:22.218Z,33.20
2022-11-13T03:39:25.720Z,38.30
2022-11-13T03:44:28.998Z,32.90
2022-11-13T03:49:32.699Z,38.00
2022-11-13T03:54:36.465Z,38.70
2022-11-13T03:59:40.052Z,40.90
2022-11-13T04:04:43.440Z,33.40
2022-11-13T04:09:47.083Z,34.90
2022-11-13T04:14:51.007Z,40.50
2022-11-13T04:19:54.609Z,33.40
2022-11-13T04:24:58.323Z,37.40
2022-11-13T04:30:01.945Z,39.40
2022-11-13T04:35:05.946Z,35.20
2022-11-13T04:40:10.402Z,39.70
2022-11-13T04:45:14.044Z,41.20
2022-11-13T04:50:18.009Z,43.50
2022-11-13T04:55:21.219Z,43.00
2022-11-13T05:00:24.790Z,40.30
2022-11-13T05:05:28.180Z,40.60
2022-11-13T05:10:31.856Z,38.30
2022-11-13T05:15:35.315Z,37.20
2022-11-13T05:20:39.113Z,43.80
2022-11-13T05:25:42.540Z,46.10
2022-11-13T05:30:46.290Z,43.80
2022-11-13T05:35:50.148Z,40.40
2022-11-13T05:40:53.670Z,46.60
2022-11-13T05:46:05.493Z,35.80
2022-11-13T05:51:20.812Z,39.10
2022-11-13T05:56:32.974Z,34.70
2022-11-13T06:01:39.251Z,46.90
2022-11-13T06:06:45.084Z,42.60
2022-11-13T06:11:49.301Z,41.10
2022-11-13T06:16:52.955Z,50.10
2022-11-13T06:21:56.660Z,42.20
2022-11-13T06:27:00.631Z,40.70
2022-11-13T06:32:04.549Z,45.20
2022-11-13T06:37:08.454Z,40.00
2022-11-13T06:42:12.043Z,47.20
2022-11-13T06:47:15.798Z,48.50
2022-11-13T06:52:19.284Z,40.20
2022-11-13T06:57:23.264Z,41.90
2022-11-13T07:02:27.056Z,49.60
2022-11-13T07:07:30.647Z,54.10
2022-11-13T07:12:34.203Z,44.10
2022-11-13T07:17:38.073Z,46.40
2022-11-13T07:22:41.905Z,59.90
2022-11-13T07:27:46.583Z,50.80
2022-11-13T07:32:51.009Z,44.10
2022-11-13T07:37:58.771Z,44.40
2022-11-13T07:43:03.798Z,34.80
2022-11-13T07:48:07.491Z,29.00
2022-11-13T07:53:11.099Z,29.40
2022-11-13T07:58:15.539Z,35.00
2022-11-13T08:03:19.747Z,22.10
2022-11-13T08:08:23.630Z,28.60
2022-11-13T08:13:27.354Z,31.90
2022-11-13T08:18:32.067Z,25.60
2022-11-13T08:23:35.540Z,21.40
2022-11-13T08:28:39.439Z,30.30
2022-11-13T08:33:43.888Z,29.10
2022-11-13T08:38:48.634Z,29.30
2022-11-13T08:43:52.245Z,23.80
2022-11-13T08:48:55.826Z,27.50
2022-11-13T08:53:59.321Z,31.50
2022-11-13T08:59:03.319Z,22.40
2022-11-13T09:04:07.183Z,19.90
2022-11-13T09:09:11.029Z,18.90
2022-11-13T09:14:14.881Z,18.60
2022-11-13T09:19:18.952Z,17.50
2022-11-13T09:24:22.563Z,24.40
2022-11-13T09:29:27.355Z,25.30
2022-11-13T09:34:30.911Z,28.40
2022-11-13T09:39:34.763Z,25.40
2022-11-13T09:44:43.777Z,25.40
2022-11-13T09:49:56.871Z,32.00
2022-11-13T09:55:00.344Z,28.10
2022-11-13T10:00:13.511Z,32.00
2022-11-13T10:05:24.065Z,28.20
2022-11-13T10:10:55.614Z,22.70
2022-11-13T10:16:10.327Z,26.50
2022-11-13T10:21:39.569Z,28.90
2022-11-13T10:26:45.367Z,27.80
2022-11-13T10:31:52.775Z,25.90
2022-11-13T10:42:41.956Z,19.40
2022-11-13T10:48:07.720Z,17.60
2022-11-13T10:53:18.523Z,15.80
2022-11-13T10:58:22.805Z,21.60
2022-11-13T11:03:30.858Z,20.60
2022-11-13T11:08:39.122Z,17.60
2022-11-13T11:13:47.145Z,16.20
2022-11-13T11:19:04.770Z,15.30
2022-11-13T11:29:27.772Z,22.70
2022-11-13T11:34:59.275Z,34.30
2022-11-13T11:40:19.278Z,29.30
2022-11-13T11:45:27.592Z,27.90
2022-11-13T11:50:37.393Z,30.20
2022-11-13T11:55:47.821Z,49.10
2022-11-13T12:00:57.603Z,45.20
2022-11-13T12:06:48.039Z,44.10
2022-11-13T12:11:58.207Z,40.10
2022-11-13T12:17:16.804Z,44.40
2022-11-13T12:22:44.359Z,37.20
2022-11-13T12:28:17.972Z,38.80
2022-11-13T12:34:01.122Z,26.60
2022-11-13T12:39:27.970Z,38.10
2022-11-13T12:44:42.915Z,36.60
2022-11-13T12:49:47.958Z,48.40
2022-11-13T12:54:52.890Z,35.80
2022-11-13T13:00:11.869Z,38.70
2022-11-13T13:05:24.343Z,34.20
2022-11-13T13:10:41.782Z,45.20
2022-11-13T13:16:05.910Z,30.70
2022-11-13T13:21:14.753Z,35.00
2022-11-13T13:26:26.110Z,27.00
2022-11-13T13:31:39.462Z,35.30
2022-11-13T13:36:52.546Z,40.20
2022-11-13T13:42:20.507Z,32.70
2022-11-13T13:47:40.175Z,28.90
2022-11-13T13:52:50.006Z,26.90
2022-11-13T13:58:05.602Z,30.70
2022-11-13T14:03:23.228Z,39.80
2022-11-13T14:08:28.481Z,25.80
2022-11-13T14:13:33.995Z,36.60
2022-11-13T14:18:39.540Z,37.10
2022-11-13T14:23:48.559Z,34.30
2022-11-13T14:29:03.710Z,33.50
2022-11-13T14:34:18.776Z,35.80
2022-11-13T14:39:34.102Z,33.40
2022-11-13T14:44:38.205Z,31.20
2022-11-13T14:49:42.211Z,34.00
2022-11-13T14:55:14.873Z,32.90
2022-11-13T15:00:18.596Z,25.70
2022-11-13T15:05:23.051Z,31.90
2022-11-13T15:10:30.499Z,40.40
2022-11-13T15:15:34.837Z,39.60
2022-11-13T15:20:38.623Z,53.70
2022-11-13T15:25:42.689Z,35.40
2022-11-13T15:30:47.186Z,36.90
2022-11-13T15:35:50.998Z,41.00
2022-11-13T15:40:57.141Z,38.60
2022-11-13T15:46:02.981Z,39.30
2022-11-13T15:51:14.189Z,35.90
2022-11-13T15:56:23.519Z,36.90
2022-11-13T16:01:28.922Z,28.10
2022-11-13T16:06:37.349Z,39.70
2022-11-13T16:11:49.959Z,42.40
2022-11-13T16:17:00.272Z,43.10
2022-11-13T16:22:08.827Z,41.90
2022-11-13T16:32:32.844Z,42.30
2022-11-13T16:37:37.425Z,43.60
2022-11-13T16:42:43.466Z,44.40
2022-11-13T16:47:48.644Z,45.40
2022-11-13T16:52:52.604Z,49.60
2022-11-13T16:57:56.224Z,48.50
2022-11-13T17:03:03.342Z,45.50
2022-11-13T17:08:08.942Z,47.60
2022-11-13T17:13:13.208Z,48.90
2022-11-13T17:18:19.018Z,48.70
2022-11-13T17:23:23.812Z,43.80
2022-11-13T17:28:27.590Z,50.10
2022-11-13T17:33:32.622Z,48.30
2022-11-13T17:38:38.158Z,49.80
2022-11-13T17:43:45.297Z,55.00
2022-11-13T17:48:49.319Z,49.10
2022-11-13T17:53:53.535Z,55.80
2022-11-13T17:58:58.349Z,49.50
2022-11-13T18:04:03.025Z,51.90
2022-11-13T18:09:07.334Z,50.00
2022-11-13T18:14:14.150Z,48.50
2022-11-13T18:19:21.986Z,51.90
2022-11-13T18:24:27.202Z,36.70
2022-11-13T18:29:31.613Z,47.10
2022-11-13T18:34:35.970Z,47.00
2022-11-13T18:39:40.692Z,56.70
2022-11-13T18:44:44.916Z,40.20
2022-11-13T18:49:49.025Z,50.80
2022-11-13T18:54:53.304Z,53.00
2022-11-13T18:59:57.255Z,46.60
2022-11-13T19:05:02.604Z,54.90
2022-11-13T19:10:07.166Z,55.90
2022-11-13T19:15:12.182Z,56.70
2022-11-13T19:20:18.410Z,55.00
2022-11-13T19:25:23.621Z,50.90
2022-11-13T19:30:27.876Z,56.60
2022-11-13T19:35:33.823Z,62.50
2022-11-13T19:40:37.726Z,62.50
2022-11-13T19:45:42.556Z,62.00
2022-11-13T19:50:47.691Z,52.10
2022-11-13T19:55:59.806Z,78.90
2022-11-13T20:01:27.310Z,188.60
2022-11-13T20:06:34.044Z,63.60
2022-11-13T20:11:38.393Z,50.00
2022-11-13T20:16:45.245Z,51.60
2022-11-13T20:21:48.939Z,46.60
2022-11-13T20:26:53.173Z,37.60
2022-11-13T20:31:56.890Z,50.90
2022-11-13T20:37:00.513Z,43.50
2022-11-13T20:42:04.214Z,49.30
2022-11-13T20:47:08.160Z,46.40
2022-11-13T20:52:12.428Z,53.60
2022-11-13T20:57:20.563Z,47.10
2022-11-13T21:02:24.429Z,47.50
2022-11-13T21:07:27.935Z,43.90
2022-11-13T21:12:32.149Z,58.40
2022-11-13T21:17:36.911Z,60.00
2022-11-13T21:22:40.630Z,50.10
2022-11-13T21:27:44.372Z,48.40
2022-11-13T21:32:49.176Z,53.20
2022-11-13T21:37:52.937Z,56.20
2022-11-13T21:42:56.875Z,49.10
2022-11-13T21:48:00.044Z,57.30
2022-11-13T21:53:03.567Z,54.70
2022-11-13T21:58:07.548Z,61.80
2022-11-13T22:03:12.153Z,68.70
2022-11-13T22:08:15.894Z,61.20
2022-11-13T22:13:19.726Z,57.00
2022-11-13T22:18:23.805Z,67.40
2022-11-13T22:23:27.403Z,44.40
2022-11-13T22:28:32.737Z,48.30
2022-11-13T22:33:36.919Z,46.20
2022-11-13T22:38:41.301Z,45.50
2022-11-13T22:43:47.198Z,42.70
2022-11-13T22:48:52.359Z,40.00
2022-11-13T22:54:01.291Z,46.50
2022-11-13T22:59:07.229Z,40.80
2022-11-13T23:04:14.104Z,49.80
2022-11-13T23:09:17.512Z,39.80
2022-11-13T23:14:21.420Z,52.60
2022-11-13T23:19:25.077Z,52.20
2022-11-13T23:24:28.784Z,46.50
2022-11-13T23:29:32.230Z,43.90
2022-11-13T23:34:57.907Z,54.10
2022-11-13T23:40:00.050Z,47.10
2022-11-13T23:45:04.124Z,49.40
2022-11-13T23:50:08.201Z,45.80
2022-11-13T23:55:11.963Z,54.50
